Main page
METAR-TAF:

METAR-TAF

Airports :

Saint-Yan Airport

Saint-Yan, France

latitude: 46-24-45N, longitude: 004-00-48E, elevation: 244 m

Current weather observation

The report was made 37 minutes ago, at 19:00 UTC
Wind 4 kt from the South/Southeast
Temperature 10°C
Humidity 57%
Pressure 1015 hPa
Visibility 10 km or more
Overcast at a height of 4100 ft

METAR: LFLN 281900Z AUTO 16004KT 9999 OVC041 10/02 Q1015 NOSIG

Time: 20:37 (19:37 UTC)

Forecast

The report was made 2 hours and 37 minutes ago, at 17:00 UTC
Forecast valid from 28 at 18 UTC to 29 at 03 UTC
Wind 6 kt from the South
Visibility 10 km or more
Broken clouds at a height of 4000 ft

TAF: LFLN 281700Z 2818/2903 17006KT 9999 BKN040

Weather observations and forecasts of more than 4000 airports (METAR and TAF reports).

The available stations are represented by yellow and red dots on the map.

Hover mouse over dot to see the name of the station.

Then click to see weather observations and forecasts.

To change the map : click on the green buttons with a black cross to zoom in, on the green button with a dash to zoom out, or on the green arrows for adjacent maps.


METAR-TAF: